createdAt,value
2018-12-05T00:04:47.653Z,93.20
2018-12-05T00:09:52.698Z,93.10
2018-12-05T00:14:57.785Z,93.10
2018-12-05T00:20:02.801Z,93.30
2018-12-05T00:25:07.872Z,93.20
2018-12-05T00:30:12.946Z,92.90
2018-12-05T00:35:17.959Z,92.90
2018-12-05T00:40:22.814Z,92.80
2018-12-05T00:45:27.787Z,93.00
2018-12-05T00:50:32.695Z,93.10
2018-12-05T00:55:37.535Z,93.10
2018-12-05T01:00:42.493Z,92.80
2018-12-05T01:05:47.364Z,93.00
2018-12-05T01:10:52.205Z,93.20
2018-12-05T01:15:57.217Z,93.20
2018-12-05T01:21:02.165Z,93.10
2018-12-05T01:26:07.217Z,93.30
2018-12-05T01:31:12.221Z,93.60
2018-12-05T01:36:17.244Z,93.70
2018-12-05T01:41:22.365Z,93.10
2018-12-05T01:46:27.244Z,93.40
2018-12-05T01:51:32.280Z,93.20
2018-12-05T01:56:37.225Z,93.00
2018-12-05T02:01:42.076Z,93.10
2018-12-05T02:06:47.141Z,93.20
2018-12-05T02:11:52.215Z,93.40
2018-12-05T02:16:57.245Z,93.10
2018-12-05T02:22:02.148Z,93.50
2018-12-05T02:27:06.928Z,93.40
2018-12-05T02:32:11.885Z,93.20
2018-12-05T02:37:16.809Z,93.10
2018-12-05T02:42:21.666Z,92.90
2018-12-05T02:47:26.606Z,93.00
2018-12-05T02:52:31.444Z,93.00
2018-12-05T02:57:36.435Z,92.80
2018-12-05T03:02:41.420Z,93.10
2018-12-05T03:07:46.164Z,93.00
2018-12-05T03:12:51.128Z,92.90
2018-12-05T03:17:56.174Z,93.00
2018-12-05T03:23:01.274Z,93.20
2018-12-05T03:28:06.193Z,93.10
2018-12-05T03:33:11.249Z,93.30
2018-12-05T03:38:16.211Z,93.40
2018-12-05T03:43:21.031Z,93.50
2018-12-05T03:48:26.959Z,93.50
2018-12-05T03:53:31.949Z,93.70
2018-12-05T03:58:36.820Z,93.50
2018-12-05T04:03:41.761Z,93.60
2018-12-05T04:08:46.594Z,93.40
2018-12-05T04:13:51.545Z,93.50
2018-12-05T04:18:56.482Z,93.60
2018-12-05T04:24:01.442Z,93.70
2018-12-05T04:29:06.465Z,93.90
2018-12-05T04:34:11.340Z,93.90
2018-12-05T04:39:16.709Z,94.20
2018-12-05T04:44:21.593Z,93.90
2018-12-05T04:49:26.439Z,93.90
2018-12-05T04:54:31.325Z,93.90
2018-12-05T04:59:36.232Z,93.80
2018-12-05T05:04:40.997Z,93.60
2018-12-05T05:09:46.164Z,93.30
2018-12-05T05:14:51.013Z,93.50
2018-12-05T05:19:55.941Z,93.30
2018-12-05T05:25:00.724Z,93.50
2018-12-05T05:30:07.003Z,93.40
2018-12-05T05:35:12.051Z,93.50
2018-12-05T05:40:17.008Z,93.40
2018-12-05T05:45:21.936Z,93.30
2018-12-05T05:50:26.786Z,93.30
2018-12-05T05:55:31.726Z,93.40
2018-12-05T06:00:36.784Z,93.50
2018-12-05T06:05:42.650Z,93.60
2018-12-05T06:10:47.792Z,93.50
2018-12-05T06:15:52.600Z,93.50
2018-12-05T06:20:57.473Z,93.50
2018-12-05T06:26:02.559Z,93.50
2018-12-05T06:31:07.393Z,93.40
2018-12-05T06:36:12.338Z,93.40
2018-12-05T06:41:17.257Z,93.60
2018-12-05T06:46:22.359Z,93.70
2018-12-05T06:51:27.265Z,93.50
2018-12-05T06:56:32.313Z,93.60
2018-12-05T07:01:37.384Z,93.40
2018-12-05T07:06:42.331Z,93.50
2018-12-05T07:11:47.390Z,93.60
2018-12-05T07:16:52.210Z,93.50
2018-12-05T07:21:57.070Z,93.50
2018-12-05T07:27:02.025Z,93.50
2018-12-05T07:32:07.076Z,93.40
2018-12-05T07:37:12.035Z,93.30
2018-12-05T07:42:16.922Z,93.20
2018-12-05T07:47:21.712Z,93.00
2018-12-05T07:52:26.546Z,92.60
2018-12-05T07:57:31.497Z,92.80
2018-12-05T08:02:36.366Z,93.10
2018-12-05T08:07:41.320Z,93.30
2018-12-05T08:12:46.430Z,93.20
2018-12-05T08:17:51.295Z,93.40
2018-12-05T08:22:56.354Z,93.60
2018-12-05T08:28:01.170Z,93.50
2018-12-05T08:33:06.244Z,93.50
2018-12-05T08:38:11.284Z,93.70
2018-12-05T08:43:16.213Z,93.70
2018-12-05T08:48:21.066Z,93.70
2018-12-05T08:53:26.122Z,93.80
2018-12-05T08:58:31.179Z,93.70
2018-12-05T09:03:36.142Z,94.00
2018-12-05T09:08:41.085Z,93.90
2018-12-05T09:13:45.943Z,93.90
2018-12-05T09:18:50.852Z,94.00
2018-12-05T09:23:55.832Z,94.10
2018-12-05T09:29:00.754Z,94.00
2018-12-05T09:34:05.622Z,93.80
2018-12-05T09:39:10.686Z,93.60
2018-12-05T09:44:15.520Z,93.80
2018-12-05T09:49:20.461Z,93.50
2018-12-05T09:54:25.494Z,93.20
2018-12-05T09:59:30.451Z,93.30
2018-12-05T10:04:35.597Z,93.30
2018-12-05T10:09:40.554Z,93.20
2018-12-05T10:14:45.605Z,93.10
2018-12-05T10:19:50.657Z,93.40
2018-12-05T10:24:55.705Z,93.30
2018-12-05T10:30:00.745Z,93.30
2018-12-05T10:35:05.800Z,93.30
2018-12-05T10:40:10.856Z,93.20
2018-12-05T10:45:16.020Z,93.30
2018-12-05T10:50:20.972Z,92.70
2018-12-05T10:55:25.803Z,93.10
2018-12-05T11:00:36.039Z,93.30
2018-12-05T11:05:46.052Z,93.10
2018-12-05T11:10:56.048Z,92.90
2018-12-05T11:16:13.002Z,92.80
2018-12-05T11:21:23.484Z,92.80
2018-12-05T11:26:31.748Z,92.80
2018-12-05T11:31:36.699Z,93.10
2018-12-05T11:36:41.516Z,92.00
2018-12-05T11:41:46.348Z,92.10
2018-12-05T11:46:51.306Z,91.70
2018-12-05T11:51:56.176Z,91.30
2018-12-05T11:57:01.117Z,91.70
2018-12-05T12:02:06.085Z,91.10
2018-12-05T12:07:11.218Z,91.40
2018-12-05T12:12:21.342Z,91.80
2018-12-05T12:17:26.324Z,91.50
2018-12-05T12:22:31.381Z,91.60
2018-12-05T12:27:36.238Z,91.60
2018-12-05T12:32:41.060Z,91.50
2018-12-05T12:37:46.210Z,91.50
2018-12-05T12:42:51.181Z,91.40
2018-12-05T12:47:56.133Z,91.30
2018-12-05T12:53:00.986Z,91.50
2018-12-05T12:58:05.917Z,91.40
2018-12-05T13:03:10.900Z,91.40
2018-12-05T13:08:15.821Z,91.40
2018-12-05T13:13:20.809Z,91.60
2018-12-05T13:18:25.857Z,91.90
2018-12-05T13:23:30.901Z,92.10
2018-12-05T13:28:35.819Z,92.10
2018-12-05T13:33:40.663Z,92.30
2018-12-05T13:38:45.616Z,92.30
2018-12-05T13:43:50.644Z,92.30
2018-12-05T13:48:55.706Z,92.30
2018-12-05T13:54:00.673Z,92.40
2018-12-05T13:59:05.619Z,92.40
2018-12-05T14:04:10.643Z,92.50
2018-12-05T14:09:15.612Z,92.70
2018-12-05T14:14:20.557Z,92.60
2018-12-05T14:19:25.641Z,92.80
2018-12-05T14:24:30.538Z,93.00
2018-12-05T14:29:35.605Z,92.90
2018-12-05T14:34:40.452Z,92.70
2018-12-05T14:39:45.676Z,92.70
2018-12-05T14:44:50.818Z,92.70
2018-12-05T14:49:56.660Z,92.60
2018-12-05T14:55:01.735Z,92.80
2018-12-05T15:00:07.266Z,92.70
2018-12-05T15:05:12.144Z,92.90
2018-12-05T15:10:18.391Z,93.10
2018-12-05T15:15:23.409Z,93.10
2018-12-05T15:20:28.278Z,93.20
2018-12-05T15:25:33.302Z,93.30
2018-12-05T15:30:38.481Z,93.50
2018-12-05T15:35:43.711Z,93.50
2018-12-05T15:40:48.784Z,93.60
2018-12-05T15:45:53.697Z,93.60
2018-12-05T15:50:58.649Z,93.40
2018-12-05T15:56:03.729Z,93.60
2018-12-05T16:01:08.644Z,93.50
2018-12-05T16:06:13.692Z,93.60
2018-12-05T16:11:18.541Z,93.20
2018-12-05T16:16:23.385Z,93.20
2018-12-05T16:21:29.415Z,93.30
2018-12-05T16:26:34.325Z,93.20
2018-12-05T16:31:39.292Z,93.10
2018-12-05T16:36:44.512Z,93.00
2018-12-05T16:41:49.427Z,93.20
2018-12-05T16:46:55.638Z,93.00
2018-12-05T16:52:00.689Z,93.10
2018-12-05T16:57:05.551Z,92.80
2018-12-05T17:02:10.814Z,93.00
2018-12-05T17:07:15.636Z,93.10
2018-12-05T17:12:20.574Z,93.20
2018-12-05T17:17:25.552Z,93.30
2018-12-05T17:22:30.467Z,93.10
2018-12-05T17:27:35.449Z,93.10
2018-12-05T17:38:25.564Z,93.10
2018-12-05T17:43:30.539Z,93.00
2018-12-05T17:48:35.365Z,92.90
2018-12-05T17:53:40.333Z,93.00
2018-12-05T17:58:45.246Z,92.90
2018-12-05T18:03:50.228Z,92.90
2018-12-05T18:08:55.159Z,92.70
2018-12-05T18:14:00.201Z,92.80
2018-12-05T18:19:05.298Z,92.90
2018-12-05T18:24:10.342Z,92.70
2018-12-05T18:29:15.448Z,92.50
2018-12-05T18:34:20.490Z,92.90
2018-12-05T18:39:25.456Z,92.80
2018-12-05T18:44:30.485Z,92.80
2018-12-05T18:49:35.426Z,93.00
2018-12-05T18:54:40.801Z,92.80
2018-12-05T18:59:45.741Z,92.60
2018-12-05T19:04:50.609Z,92.60
2018-12-05T19:09:55.551Z,92.40
2018-12-05T19:15:00.408Z,92.80
2018-12-05T19:20:06.165Z,92.90
2018-12-05T19:25:11.119Z,92.70
2018-12-05T19:30:16.070Z,92.50
2018-12-05T19:35:20.981Z,92.30
2018-12-05T19:40:25.845Z,92.50
2018-12-05T19:45:30.901Z,92.50
2018-12-05T19:50:36.971Z,92.50
2018-12-05T19:55:41.937Z,92.60
2018-12-05T20:00:46.711Z,92.70
2018-12-05T20:05:51.678Z,92.90
2018-12-05T20:10:56.525Z,92.90
2018-12-05T20:16:01.426Z,92.80
2018-12-05T20:21:06.412Z,92.70
2018-12-05T20:26:11.425Z,92.60
2018-12-05T20:31:16.416Z,92.40
2018-12-05T20:36:21.322Z,92.60
2018-12-05T20:41:32.366Z,92.90
2018-12-05T20:46:33.407Z,92.70
2018-12-05T20:51:38.618Z,92.50
2018-12-05T20:56:43.605Z,92.50
2018-12-05T21:01:48.708Z,92.30
2018-12-05T21:06:53.790Z,92.30
2018-12-05T21:11:58.856Z,92.30
2018-12-05T21:17:03.802Z,92.30
2018-12-05T21:22:08.856Z,92.20
2018-12-05T21:27:13.710Z,92.20
2018-12-05T21:32:18.625Z,92.30
2018-12-05T21:37:23.499Z,92.40
2018-12-05T21:42:28.793Z,92.40
2018-12-05T21:47:33.704Z,92.50
2018-12-05T21:52:38.783Z,92.50
2018-12-05T21:57:43.720Z,92.40
2018-12-05T22:02:48.730Z,92.30
2018-12-05T22:07:53.587Z,92.30
2018-12-05T22:12:58.627Z,92.40
2018-12-05T22:18:03.497Z,92.50
2018-12-05T22:23:08.625Z,92.40
2018-12-05T22:28:13.585Z,92.30
2018-12-05T22:33:18.552Z,92.40
2018-12-05T22:38:23.370Z,92.30
2018-12-05T22:43:28.318Z,92.10
2018-12-05T22:48:33.199Z,91.80
2018-12-05T22:53:38.220Z,92.00
2018-12-05T22:58:43.169Z,91.70
2018-12-05T23:03:48.205Z,91.50
2018-12-05T23:08:52.955Z,87.20
2018-12-05T23:13:57.770Z,78.20
2018-12-05T23:19:02.626Z,74.60
2018-12-05T23:24:07.607Z,70.00
2018-12-05T23:29:12.534Z,69.10
2018-12-05T23:34:17.404Z,67.20
2018-12-05T23:39:22.383Z,64.50
2018-12-05T23:44:27.198Z,62.40
2018-12-05T23:49:32.096Z,60.70
2018-12-05T23:54:37.173Z,59.30
2018-12-05T23:59:42.960Z,58.50
